Time;durP1;ratioP1;P1;durP2;ratioP2;P2;SDS_P1;SDS_P2;PMS_P1;PMS_P2;Temp;Humidity;BMP_temperature;BMP_pressure;BME280_temperature;BME280_humidity;BME280_pressure;Samples;Min_cycle;Max_cycle;Signal;HPM_P1;HPM_P2
2021/07/01 00:02:20;;;;;;;8.98;5.28;;;;;;;21.56;77.91;100526.47;1708972;84;20940;-75
2021/07/01 00:04:46;;;;;;;8.75;5.50;;;;;;;21.56;78.06;100518.97;1709052;84;20931;-74
2021/07/01 00:07:13;;;;;;;5.95;5.15;;;;;;;21.57;77.89;100527.33;1709001;84;20916;-76
2021/07/01 00:09:41;;;;;;;7.62;5.00;;;;;;;21.59;77.91;100526.64;1709361;84;20936;-74
2021/07/01 00:12:08;;;;;;;8.35;6.08;;;;;;;21.59;77.71;100512.81;1709818;82;21280;-76
2021/07/01 00:14:37;;;;;;;6.35;5.28;;;;;;;21.56;78.02;100511.80;1709240;83;20881;-73
2021/07/01 00:17:04;;;;;;;6.72;4.65;;;;;;;21.57;77.95;100513.98;1709253;84;20889;-74
2021/07/01 00:19:31;;;;;;;10.53;5.58;;;;;;;21.58;77.95;100509.80;1709027;82;21425;-75
2021/07/01 00:21:58;;;;;;;6.58;5.33;;;;;;;21.58;77.96;100499.13;1709076;84;20888;-73
2021/07/01 00:24:25;;;;;;;8.28;5.45;;;;;;;21.59;77.84;100502.14;1709003;84;21158;-79
2021/07/01 00:26:52;;;;;;;6.10;5.55;;;;;;;21.60;77.84;100507.80;1708798;84;20892;-79
2021/07/01 00:29:19;;;;;;;9.80;6.20;;;;;;;21.66;77.94;100517.81;1708794;83;20908;-76
2021/07/01 00:31:46;;;;;;;8.38;5.90;;;;;;;21.72;77.86;100514.96;1708848;84;20957;-76
2021/07/01 00:34:13;;;;;;;9.93;6.72;;;;;;;21.77;77.70;100507.81;1708767;84;20853;-76
2021/07/01 00:36:44;;;;;;;10.55;7.15;;;;;;;21.78;77.39;100500.95;1709011;84;21940;-75
2021/07/01 00:39:11;;;;;;;8.68;6.40;;;;;;;21.78;77.30;100503.62;1708753;82;20852;-75
2021/07/01 00:41:39;;;;;;;10.23;7.08;;;;;;;21.81;77.06;100503.78;1708794;84;21453;-74
2021/07/01 00:44:07;;;;;;;7.97;6.45;;;;;;;21.85;76.81;100498.44;1708761;84;20967;-75
2021/07/01 00:46:35;;;;;;;8.83;6.20;;;;;;;21.89;76.88;100494.44;1708903;84;20920;-74
2021/07/01 00:49:02;;;;;;;14.28;6.50;;;;;;;21.90;76.79;100496.95;1708792;82;21059;-75
2021/07/01 00:51:29;;;;;;;11.38;6.80;;;;;;;21.91;76.51;100489.77;1708716;82;20936;-74
2021/07/01 00:53:57;;;;;;;7.12;6.53;;;;;;;21.89;76.38;100488.59;1708981;84;20935;-73
2021/07/01 00:56:24;;;;;;;10.85;6.12;;;;;;;21.88;76.38;100489.61;1708831;84;20936;-75
2021/07/01 00:58:55;;;;;;;7.97;6.25;;;;;;;21.88;76.29;100477.59;1708845;84;20895;-74
2021/07/01 01:01:23;;;;;;;7.92;6.67;;;;;;;21.88;76.24;100472.25;1708799;84;21128;-73
2021/07/01 01:03:51;;;;;;;10.32;5.85;;;;;;;21.89;76.20;100466.41;1708712;82;21354;-73
2021/07/01 01:06:18;;;;;;;9.13;5.97;;;;;;;21.88;76.34;100469.58;1708737;84;21445;-74
2021/07/01 01:08:46;;;;;;;9.75;6.53;;;;;;;21.89;76.37;100473.91;1733915;82;20893;-74
2021/07/01 01:11:14;;;;;;;10.35;7.47;;;;;;;21.87;76.54;100471.08;1744559;81;21054;-74
2021/07/01 01:13:46;;;;;;;8.63;7.05;;;;;;;21.84;76.84;100476.77;1744830;82;21084;-73
2021/07/01 01:16:31;;;;;;;9.65;6.78;;;;;;;21.82;77.05;100477.43;1744531;82;20976;-74
2021/07/01 01:19:00;;;;;;;12.03;7.95;;;;;;;21.79;77.10;100489.29;1744495;81;20937;-75
2021/07/01 01:21:29;;;;;;;8.65;6.70;;;;;;;21.79;76.81;100488.43;1744550;80;21494;-74
2021/07/01 01:23:57;;;;;;;8.55;6.05;;;;;;;21.80;76.68;100488.27;1744847;81;21427;-74
2021/07/01 01:26:24;;;;;;;8.23;7.42;;;;;;;21.81;76.44;100492.62;1744548;81;21126;-74
2021/07/01 01:32:40;;;;;;;12.40;7.85;;;;;;;21.76;76.60;100510.95;1708143;82;20947;-74
2021/07/01 01:35:08;;;;;;;10.78;7.50;;;;;;;21.76;76.48;100527.48;1708665;82;20979;-73
2021/07/01 01:37:35;;;;;;;9.18;6.25;;;;;;;21.73;76.39;100524.14;1708759;84;20975;-74
2021/07/01 01:40:02;;;;;;;11.10;6.45;;;;;;;21.69;76.20;100517.47;1709051;82;21166;-74
2021/07/01 01:42:29;;;;;;;7.47;6.17;;;;;;;21.64;76.07;100509.64;1709011;84;20968;-74
2021/07/01 01:44:56;;;;;;;9.68;6.62;;;;;;;21.60;76.04;100517.14;1708731;82;20971;-74
2021/07/01 01:47:24;;;;;;;10.13;6.25;;;;;;;21.58;75.97;100519.64;1709247;82;21054;-74
2021/07/01 01:49:52;;;;;;;6.33;5.72;;;;;;;21.55;76.10;100518.66;1708657;83;20983;-73
2021/07/01 01:52:19;;;;;;;10.40;6.05;;;;;;;21.52;76.23;100524.66;1708759;84;21147;-74
2021/07/01 01:54:48;;;;;;;12.15;5.62;;;;;;;21.52;76.10;100518.45;1708653;84;21488;-73
2021/07/01 01:57:16;;;;;;;8.28;5.58;;;;;;;21.49;76.00;100516.13;1708709;83;20928;-73
2021/07/01 01:59:54;;;;;;;10.93;5.87;;;;;;;21.46;76.00;100519.14;1677322;83;20900;-73
2021/07/01 02:02:39;;;;;;;7.35;4.95;;;;;;;21.44;76.00;100524.64;1708710;82;20963;-73
2021/07/01 02:05:27;;;;;;;7.92;5.20;;;;;;;21.41;75.99;100518.31;1708371;83;21489;-73
2021/07/01 02:07:54;;;;;;;10.60;6.05;;;;;;;21.40;76.08;100509.09;1708598;82;20927;-74
2021/07/01 02:10:33;;;;;;;9.15;7.85;;;;;;;21.38;76.13;100510.58;1744669;81;20945;-73
2021/07/01 02:12:59;;;;;;;14.85;7.20;;;;;;;21.36;76.18;100518.42;1744608;81;20956;-74
2021/07/01 02:15:26;;;;;;;7.87;5.47;;;;;;;21.36;76.20;100519.25;1744900;81;20885;-74
2021/07/01 02:17:55;;;;;;;9.18;5.33;;;;;;;21.37;76.23;100524.11;1744647;81;21187;-77
2021/07/01 02:20:27;;;;;;;10.15;6.30;;;;;;;21.38;76.25;100519.92;1744459;80;20889;-75
2021/07/01 02:22:54;;;;;;;8.23;5.50;;;;;;;21.38;76.31;100524.43;1744851;82;20857;-74
2021/07/01 02:25:23;;;;;;;8.78;5.95;;;;;;;21.40;76.22;100531.77;1708146;83;20896;-73
2021/07/01 02:27:54;;;;;;;10.80;7.15;;;;;;;21.38;76.17;100516.43;1693807;82;20885;-75
2021/07/01 02:30:21;;;;;;;10.10;7.42;;;;;;;21.38;76.21;100520.42;1709163;84;21104;-74
2021/07/01 02:32:49;;;;;;;12.35;7.28;;;;;;;21.38;76.21;100519.92;1708785;84;20940;-74
2021/07/01 02:35:17;;;;;;;13.93;7.78;;;;;;;21.36;76.28;100517.09;1708835;84;20952;-76
2021/07/01 02:37:46;;;;;;;13.15;7.67;;;;;;;21.39;76.26;100520.27;1679525;83;20920;-75
2021/07/01 02:40:15;;;;;;;9.58;7.35;;;;;;;21.38;76.34;100519.09;1744030;81;20877;-76
2021/07/01 02:42:48;;;;;;;8.10;6.67;;;;;;;21.36;76.37;100515.25;1743163;80;21367;-75
2021/07/01 02:45:15;;;;;;;10.35;7.75;;;;;;;21.37;76.45;100508.93;1744720;81;20841;-76
2021/07/01 02:47:46;;;;;;;15.10;6.95;;;;;;;21.39;76.54;100504.74;1744541;82;20916;-76
2021/07/01 02:50:13;;;;;;;12.30;7.40;;;;;;;21.38;76.68;100513.76;1744505;82;21327;-75
2021/07/01 02:52:41;;;;;;;11.73;9.18;;;;;;;21.37;76.82;100518.27;1744544;82;20965;-75
2021/07/01 02:55:09;;;;;;;11.83;6.72;;;;;;;21.37;76.93;100527.60;1744468;82;21124;-75
2021/07/01 02:57:38;;;;;;;10.90;7.55;;;;;;;21.38;77.00;100528.44;1744893;82;20984;-75
2021/07/01 03:00:08;;;;;;;11.57;8.43;;;;;;;21.38;77.12;100533.26;1744656;80;20877;-75
2021/07/01 03:02:37;;;;;;;14.45;7.65;;;;;;;21.40;77.14;100543.78;1708560;82;20979;-75
2021/07/01 03:05:15;;;;;;;15.30;8.70;;;;;;;21.40;77.20;100545.94;1707146;82;20864;-76
2021/07/01 03:07:44;;;;;;;9.98;8.48;;;;;;;21.41;77.20;100536.98;1708829;82;20912;-76
2021/07/01 03:10:12;;;;;;;11.43;8.78;;;;;;;21.42;77.18;100529.30;1734107;82;20854;-77
2021/07/01 03:12:44;;;;;;;14.75;9.43;;;;;;;21.43;77.23;100526.13;1707382;83;20881;-74
2021/07/01 03:15:12;;;;;;;15.00;8.33;;;;;;;21.44;77.31;100536.64;1708533;84;21306;-75
2021/07/01 03:17:39;;;;;;;9.30;8.18;;;;;;;21.48;77.34;100529.16;1709240;83;21414;-75
2021/07/01 03:20:07;;;;;;;12.47;9.30;;;;;;;21.52;77.25;100525.13;1708850;84;21111;-75
2021/07/01 03:22:36;;;;;;;9.95;8.83;;;;;;;21.57;77.10;100514.81;1691546;84;20892;-75
2021/07/01 03:25:03;;;;;;;16.37;8.48;;;;;;;21.62;77.10;100522.31;1708947;84;21389;-75
2021/07/01 03:27:30;;;;;;;12.10;8.33;;;;;;;21.68;76.96;100527.83;1708850;84;20935;-75
2021/07/01 03:29:58;;;;;;;10.93;8.30;;;;;;;21.76;76.85;100532.82;1709204;82;21015;-74
2021/07/01 03:32:26;;;;;;;10.30;7.92;;;;;;;21.82;76.67;100543.66;1709225;84;21101;-74
2021/07/01 03:34:53;;;;;;;11.33;7.90;;;;;;;21.86;76.61;100546.34;1708766;82;20917;-74
2021/07/01 03:37:23;;;;;;;15.30;9.25;;;;;;;21.94;76.48;100562.84;1742994;82;20853;-76
2021/07/01 03:40:08;;;;;;;15.43;8.88;;;;;;;22.03;76.38;100562.34;1686178;81;20869;-76
2021/07/01 03:42:35;;;;;;;13.13;8.78;;;;;;;22.12;76.31;100558.66;1687615;84;20884;-76
2021/07/01 03:45:05;;;;;;;14.73;9.13;;;;;;;22.20;76.12;100550.64;1709093;84;21892;-77
2021/07/01 03:47:33;;;;;;;13.58;8.65;;;;;;;22.29;75.91;100568.86;1709028;82;20939;-77
2021/07/01 03:50:00;;;;;;;12.50;9.55;;;;;;;22.39;75.68;100567.32;1713262;82;20888;-81
2021/07/01 03:52:47;;;;;;;9.40;8.53;;;;;;;22.47;75.35;100560.63;1723639;83;20935;-77
2021/07/01 03:55:14;;;;;;;10.93;8.80;;;;;;;22.55;75.07;100573.47;1696863;83;20887;-77
2021/07/01 03:57:41;;;;;;;14.68;8.93;;;;;;;22.64;74.87;100572.13;1722175;82;21105;-74
2021/07/01 04:00:11;;;;;;;9.33;8.43;;;;;;;22.71;74.61;100570.42;1721937;82;20983;-76
2021/07/01 04:02:49;;;;;;;9.68;8.53;;;;;;;22.78;74.40;100588.77;1722107;83;20912;-75
2021/07/01 04:05:18;;;;;;;14.30;8.63;;;;;;;22.84;74.19;100585.92;1721758;82;20986;-78
2021/07/01 04:07:45;;;;;;;17.87;9.50;;;;;;;22.89;74.09;100586.23;1722254;83;21458;-75
2021/07/01 04:10:17;;;;;;;14.07;10.18;;;;;;;22.93;73.99;100591.05;1722053;83;21896;-76
2021/07/01 04:12:53;;;;;;;12.37;9.13;;;;;;;23.00;73.85;100597.91;1703099;84;21383;-75
2021/07/01 04:15:32;;;;;;;16.80;10.18;;;;;;;23.06;73.54;100597.73;1703728;84;21450;-77
2021/07/01 04:18:18;;;;;;;11.75;8.85;;;;;;;23.16;73.32;100589.80;1667631;83;21643;-76
2021/07/01 04:21:03;;;;;;;18.70;10.55;;;;;;;23.36;73.01;100597.39;1722222;83;20919;-75
2021/07/01 04:23:48;;;;;;;15.88;10.72;;;;;;;23.71;72.62;100589.81;1703798;84;21175;-76
2021/07/01 04:26:37;;;;;;;16.52;11.85;;;;;;;24.17;71.55;100579.09;1633370;86;21674;-76
2021/07/01 04:29:09;;;;;;;13.98;11.55;;;;;;;24.68;70.08;100575.22;1632585;86;21053;-77
2021/07/01 04:31:36;;;;;;;16.25;10.85;;;;;;;25.13;68.54;100569.28;1633644;86;21375;-76
2021/07/01 04:34:04;;;;;;;11.48;10.20;;;;;;;25.52;66.86;100559.19;1633747;86;21504;-74
2021/07/01 04:36:32;;;;;;;18.98;10.88;;;;;;;25.91;65.63;100559.27;1633438;87;21166;-76
2021/07/01 04:39:00;;;;;;;11.25;10.08;;;;;;;26.28;64.38;100554.07;1633521;86;21615;-78
2021/07/01 04:41:31;;;;;;;13.68;9.68;;;;;;;26.63;63.19;100545.48;1633270;86;21022;-79
2021/07/01 04:43:59;;;;;;;16.70;10.38;;;;;;;26.98;62.05;100545.44;1602229;88;21514;-76
2021/07/01 04:46:28;;;;;;;14.07;10.20;;;;;;;27.29;60.80;100544.11;1602506;88;21094;-76
2021/07/01 04:48:55;;;;;;;12.58;10.23;;;;;;;27.59;59.98;100541.89;1602390;88;21106;-74
2021/07/01 04:51:22;;;;;;;15.20;11.33;;;;;;;27.86;59.32;100536.55;1612371;87;21426;-74
2021/07/01 04:54:07;;;;;;;13.05;10.38;;;;;;;28.09;58.31;100545.53;1618936;87;21110;-75
2021/07/01 04:56:53;;;;;;;15.85;10.23;;;;;;;28.31;56.93;100538.85;1638430;82;21457;-75
2021/07/01 04:59:25;;;;;;;16.40;10.90;;;;;;;28.47;56.98;100532.70;1743659;82;20964;-74
2021/07/01 05:01:58;;;;;;;11.43;9.48;;;;;;;28.66;56.57;100536.41;1744386;82;21161;-75
2021/07/01 05:04:45;;;;;;;13.20;9.75;;;;;;;28.93;56.41;100533.08;1744432;82;20841;-78
2021/07/01 05:07:14;;;;;;;16.95;9.15;;;;;;;29.17;55.52;100526.13;1744549;81;20945;-75
2021/07/01 05:09:43;;;;;;;18.77;9.83;;;;;;;29.37;54.80;100533.25;1708740;82;21413;-75
2021/07/01 05:12:12;;;;;;;16.35;9.95;;;;;;;29.57;54.02;100531.26;1695950;84;20892;-77
2021/07/01 05:14:42;;;;;;;11.38;9.03;;;;;;;29.80;53.43;100519.04;1708800;84;20868;-77
2021/07/01 05:17:09;;;;;;;15.68;9.60;;;;;;;30.06;53.03;100514.73;1708831;84;20932;-75
2021/07/01 05:19:38;;;;;;;14.90;9.53;;;;;;;30.26;52.46;100513.18;1708932;82;20900;-78
2021/07/01 05:22:07;;;;;;;11.73;8.75;;;;;;;30.50;51.81;100503.33;1744834;81;21363;-77
2021/07/01 05:24:52;;;;;;;14.33;8.68;;;;;;;30.72;51.19;100501.52;1744781;81;20921;-76
2021/07/01 05:27:45;;;;;;;10.63;9.23;;;;;;;31.01;50.81;100490.42;1744622;81;21155;-75
2021/07/01 05:30:31;;;;;;;;;;;;;;;31.28;49.82;100501.71;1747274;82;20949;-75
2021/07/01 05:33:12;;;;;;;11.18;8.40;;;;;;;31.56;48.43;100490.76;1686052;81;20390;-78
2021/07/01 05:35:40;;;;;;;9.98;8.65;;;;;;;31.72;47.67;100491.41;1708299;82;20987;-70
2021/07/01 05:38:08;;;;;;;15.78;8.30;;;;;;;31.76;48.05;100473.61;1708832;82;21557;-74
2021/07/01 05:40:40;;;;;;;11.50;7.37;;;;;;;31.92;48.01;100483.45;1708882;82;21201;-67
2021/07/01 05:43:09;;;;;;;22.37;9.85;;;;;;;32.14;47.70;100481.81;1708785;84;20888;-72
2021/07/01 05:45:37;;;;;;;7.15;6.42;;;;;;;32.40;47.53;100476.39;1708796;84;20856;-72
2021/07/01 05:48:06;;;;;;;12.40;7.58;;;;;;;32.65;47.03;100475.81;1708728;84;20849;-71
2021/07/01 05:50:42;;;;;;;8.45;7.55;;;;;;;32.90;46.54;100479.55;1708738;84;20880;-71
2021/07/01 05:53:07;;;;;;;9.25;7.92;;;;;;;33.13;45.80;100479.46;1708054;84;21341;-72
2021/07/01 05:55:33;;;;;;;11.00;6.60;;;;;;;33.36;45.52;100476.30;1715546;82;20876;-72
2021/07/01 05:58:00;;;;;;;7.08;5.92;;;;;;;33.59;44.15;100487.57;1716495;83;20916;-71
2021/07/01 06:00:28;;;;;;;11.33;6.28;;;;;;;33.82;43.29;100486.03;1716429;82;20999;-72
2021/07/01 06:02:57;;;;;;;11.93;6.67;;;;;;;34.05;42.82;100484.17;1716635;83;20845;-75
2021/07/01 06:05:24;;;;;;;11.20;7.05;;;;;;;34.27;42.30;100484.22;1717001;83;21184;-74
2021/07/01 06:08:04;;;;;;;11.73;7.95;;;;;;;34.48;42.18;100482.55;1716275;82;20896;-71
2021/07/01 06:10:37;;;;;;;12.07;7.03;;;;;;;34.70;41.81;100476.30;1716906;83;21362;-72
2021/07/01 06:13:08;;;;;;;14.15;8.10;;;;;;;34.85;41.31;100469.65;1733605;82;20976;-71
2021/07/01 06:15:35;;;;;;;13.78;7.65;;;;;;;35.00;41.18;100461.63;1752697;82;20889;-79
2021/07/01 06:18:03;;;;;;;9.05;6.85;;;;;;;35.17;40.86;100474.33;1752812;80;21098;-78
2021/07/01 06:20:34;;;;;;;8.38;7.08;;;;;;;35.34;40.50;100476.39;1752862;82;20916;-80
2021/07/01 06:23:01;;;;;;;9.08;8.15;;;;;;;35.49;40.03;100472.97;1750926;80;21009;-81
2021/07/01 06:25:28;;;;;;;9.70;8.65;;;;;;;35.64;39.62;100476.36;1752836;82;21473;-86
2021/07/01 06:27:55;;;;;;;10.18;9.18;;;;;;;35.76;39.70;100472.91;1752835;82;20884;-86
2021/07/01 06:30:22;;;;;;;10.40;9.28;;;;;;;35.91;39.04;100474.91;1754182;82;21109;-83
2021/07/01 06:32:53;;;;;;;12.75;9.60;;;;;;;36.04;39.08;100466.25;1716619;83;20987;-81
2021/07/01 06:35:23;;;;;;;11.80;9.20;;;;;;;36.16;38.79;100466.59;1718138;83;20903;-81
2021/07/01 06:38:04;;;;;;;13.22;9.68;;;;;;;36.27;38.09;100466.37;1717033;83;20857;-80
2021/07/01 06:40:55;;;;;;;12.07;8.83;;;;;;;36.39;38.07;100463.40;1690206;83;20948;-83
2021/07/01 06:43:48;;;;;;;10.32;8.83;;;;;;;36.45;38.29;100465.61;1717443;83;21990;-79
2021/07/01 06:46:36;;;;;;;8.75;7.75;;;;;;;36.55;37.72;100460.71;1713550;83;20884;-80
2021/07/01 06:49:21;;;;;;;9.58;8.30;;;;;;;36.65;37.35;100462.15;1717486;83;20979;-78
2021/07/01 06:52:12;;;;;;;10.60;8.40;;;;;;;36.76;37.11;100462.99;1689097;83;21030;-77
2021/07/01 06:54:59;;;;;;;10.98;8.38;;;;;;;36.85;36.47;100458.63;1737779;81;21374;-81
2021/07/01 06:57:41;;;;;;;13.30;8.00;;;;;;;36.94;36.27;100462.47;1753997;79;21153;-81
2021/07/01 07:00:13;;;;;;;14.68;7.90;;;;;;;37.01;36.56;100460.28;1672518;83;20907;-79
2021/07/01 07:04:21;;;;;;;10.45;7.75;;;;;;;37.16;36.57;100459.50;1798831;79;23340;-78
2021/07/01 07:07:00;;;;;;;;;;;;;;;;;;;;;
2021/07/01 07:09:20;;;;;;;10.58;7.75;;;;;;;36.99;36.40;100447.98;1612530;83;21409;-79
2021/07/01 07:11:50;;;;;;;14.28;8.55;;;;;;;36.80;36.26;100449.03;1656104;82;20895;-77
2021/07/01 07:14:20;;;;;;;7.75;7.05;;;;;;;36.66;36.80;100445.49;1659499;80;20940;-77
2021/07/01 07:16:53;;;;;;;8.50;7.50;;;;;;;36.47;37.31;100453.87;1707519;80;20970;-76
2021/07/01 07:19:22;;;;;;;24.27;10.20;;;;;;;36.45;37.45;100454.69;1701113;80;21104;-76
2021/07/01 07:21:53;;;;;;;13.30;8.43;;;;;;;36.34;37.92;100449.73;1679917;85;21372;-74
2021/07/01 07:24:24;;;;;;;12.53;7.75;;;;;;;36.20;37.57;100449.41;1675767;81;20987;-74
2021/07/01 07:26:53;;;;;;;9.93;8.45;;;;;;;35.97;37.70;100455.27;1669935;80;21047;-80
2021/07/01 07:29:35;;;;;;;;;;;;;;;;;;;;;
2021/07/01 07:32:13;;;;;;;13.75;8.08;;;;;;;35.36;38.62;100455.69;1598289;86;21002;-75
2021/07/01 07:34:42;;;;;;;11.68;7.53;;;;;;;35.07;39.50;100461.41;1577851;86;22349;-75
2021/07/01 07:37:14;;;;;;;13.40;8.15;;;;;;;34.64;39.44;100457.70;1587096;87;21014;-73
2021/07/01 07:40:05;;;;;;;13.95;8.55;;;;;;;34.25;40.11;100469.48;1608586;89;20914;-75
2021/07/01 07:42:38;;;;;;;9.83;8.28;;;;;;;33.91;40.84;100474.73;1609118;87;20993;-76
2021/07/01 07:45:08;;;;;;;11.20;7.87;;;;;;;33.59;42.41;100482.13;1609243;87;20970;-73
2021/07/01 07:47:35;;;;;;;9.93;7.65;;;;;;;33.31;43.26;100483.03;1609277;87;21545;-73
2021/07/01 07:50:06;;;;;;;14.65;8.03;;;;;;;33.02;43.42;100477.06;1609030;87;21033;-73
2021/07/01 07:52:35;;;;;;;9.95;7.92;;;;;;;32.77;44.09;100487.45;1609086;87;20911;-76
2021/07/01 07:55:10;;;;;;;12.70;7.60;;;;;;;32.54;44.64;100481.58;1611149;87;21049;-72
2021/07/01 07:57:34;;;;;;;9.38;7.80;;;;;;;32.34;45.04;100488.20;1612391;86;20994;-76
2021/07/01 08:00:07;;;;;;;10.23;7.72;;;;;;;32.13;45.41;100486.95;1585310;87;21128;-75
2021/07/01 08:02:48;;;;;;;10.25;7.12;;;;;;;31.95;45.65;100493.31;1579311;90;20946;-75
2021/07/01 08:05:30;;;;;;;11.10;7.50;;;;;;;31.80;45.94;100496.49;1584172;86;21087;-77
2021/07/01 08:08:01;;;;;;;10.18;6.72;;;;;;;31.63;45.78;100492.00;1602888;88;20990;-75
2021/07/01 08:10:32;;;;;;;8.45;7.17;;;;;;;31.44;46.06;100490.75;1606540;85;21601;-74
2021/07/01 08:13:05;;;;;;;8.35;6.83;;;;;;;31.30;46.48;100499.56;1637763;84;21038;-74
2021/07/01 08:15:36;;;;;;;10.18;6.65;;;;;;;31.14;46.94;100493.47;1645734;86;21021;-73
2021/07/01 08:18:05;;;;;;;7.53;6.28;;;;;;;31.01;47.00;100488.24;1639483;86;23014;-77
2021/07/01 08:20:32;;;;;;;7.80;6.75;;;;;;;30.85;46.65;100493.25;1647893;84;21037;-75
2021/07/01 08:23:00;;;;;;;8.20;6.87;;;;;;;30.71;46.93;100485.80;1656307;86;20882;-74
2021/07/01 08:25:28;;;;;;;10.93;7.20;;;;;;;30.62;47.21;100484.47;1656529;85;22019;-78
2021/07/01 08:27:55;;;;;;;7.42;6.80;;;;;;;30.51;47.62;100480.65;1656356;85;20921;-75
2021/07/01 08:30:26;;;;;;;11.53;7.45;;;;;;;30.43;48.20;100473.36;1647565;84;20918;-78
2021/07/01 08:32:59;;;;;;;10.55;7.70;;;;;;;30.34;48.37;100474.19;1654346;84;21450;-74
2021/07/01 08:35:30;;;;;;;8.90;7.37;;;;;;;30.26;48.88;100466.34;1737633;80;20928;-74
2021/07/01 08:38:02;;;;;;;9.88;7.28;;;;;;;30.16;49.26;100466.34;1775856;80;21669;-75
2021/07/01 08:40:37;;;;;;;11.18;7.00;;;;;;;30.06;49.27;100465.20;1774406;80;20936;-74
2021/07/01 08:43:07;;;;;;;9.40;7.05;;;;;;;29.95;49.49;100464.91;1775588;80;20893;-73
2021/07/01 08:45:51;;;;;;;11.60;7.15;;;;;;;29.84;49.70;100464.30;1775528;80;20900;-73
2021/07/01 08:48:23;;;;;;;11.97;6.62;;;;;;;29.72;49.64;100457.95;1775497;80;20911;-73
2021/07/01 08:50:56;;;;;;;14.43;7.60;;;;;;;29.58;50.22;100459.93;1782620;79;21147;-74
2021/07/01 08:54:15;;;;;;;14.63;8.38;;;;;;;29.45;50.72;100458.16;1696121;79;20968;-77
2021/07/01 08:56:43;;;;;;;14.60;8.25;;;;;;;29.33;50.99;100465.34;1709325;80;21007;-74
2021/07/01 08:59:11;;;;;;;19.70;17.95;;;;;;;29.16;51.40;100461.52;1726169;80;20968;-73
2021/07/01 09:01:41;;;;;;;12.07;8.25;;;;;;;29.03;52.30;100465.91;1691622;80;20987;-81
2021/07/01 09:04:13;;;;;;;8.28;7.47;;;;;;;28.91;52.11;100464.44;1723722;79;21302;-75
2021/07/01 09:06:40;;;;;;;13.07;7.97;;;;;;;28.81;53.33;100457.84;1710379;79;20961;-74
2021/07/01 09:09:11;;;;;;;9.28;7.40;;;;;;;28.72;54.45;100464.86;1709674;80;21297;-74
2021/07/01 09:11:40;;;;;;;10.15;7.75;;;;;;;28.64;53.72;100454.84;1727284;80;20976;-75
2021/07/01 09:14:10;;;;;;;13.58;7.60;;;;;;;28.57;53.38;100463.46;1726655;79;21742;-73
2021/07/01 09:16:38;;;;;;;14.95;8.10;;;;;;;28.50;53.31;100462.99;1757164;80;21880;-76
2021/07/01 09:19:05;;;;;;;10.40;8.03;;;;;;;28.46;53.41;100464.95;1720793;79;20927;-75
2021/07/01 09:21:32;;;;;;;9.55;7.67;;;;;;;28.44;54.78;100464.34;1669061;86;21026;-76
2021/07/01 09:24:03;;;;;;;11.53;6.30;;;;;;;28.41;54.01;100464.74;1734019;79;21010;-76
2021/07/01 09:26:30;;;;;;;7.80;6.55;;;;;;;28.38;53.74;100467.35;1752708;79;20882;-79
2021/07/01 09:28:59;;;;;;;11.22;7.25;;;;;;;28.36;53.56;100469.44;1757227;81;21121;-75
2021/07/01 09:31:27;;;;;;;8.38;6.97;;;;;;;28.36;53.27;100474.01;1750004;79;20935;-75
2021/07/01 09:33:54;;;;;;;16.70;9.35;;;;;;;28.34;53.96;100472.86;1689457;81;20948;-75
2021/07/01 09:36:24;;;;;;;11.93;6.90;;;;;;;28.35;53.84;100469.63;1685895;85;20999;-76
2021/07/01 09:38:57;;;;;;;7.90;6.73;;;;;;;28.35;53.51;100462.40;1720427;79;20935;-74
2021/07/01 09:41:24;;;;;;;12.47;7.55;;;;;;;28.37;53.05;100460.31;1771239;78;21514;-77
2021/07/01 09:43:53;;;;;;;10.10;6.78;;;;;;;28.43;53.18;100461.31;1757625;80;20915;-77
2021/07/01 09:46:22;;;;;;;8.60;6.25;;;;;;;28.59;54.17;100460.03;1758550;80;20911;-77
2021/07/01 09:48:52;;;;;;;9.78;5.92;;;;;;;28.78;54.44;100456.41;1758840;80;20988;-76
2021/07/01 09:51:20;;;;;;;9.70;6.08;;;;;;;29.01;53.87;100459.08;1758658;80;20819;-77
2021/07/01 09:53:53;;;;;;;7.87;6.70;;;;;;;29.26;52.25;100455.94;1758576;81;21101;-78
2021/07/01 09:56:38;;;;;;;9.03;5.20;;;;;;;29.60;51.25;100449.73;1758403;80;20856;-78
2021/07/01 09:59:30;;;;;;;6.85;5.67;;;;;;;29.86;51.81;100445.98;1758233;80;20875;-77
2021/07/01 10:02:21;;;;;;;14.15;7.10;;;;;;;30.18;51.04;100443.66;1758479;80;20965;-78
2021/07/01 10:04:51;;;;;;;10.93;6.17;;;;;;;30.47;50.09;100440.20;1758634;81;20898;-76
2021/07/01 10:07:20;;;;;;;9.40;6.37;;;;;;;30.87;49.64;100433.45;1758875;80;21486;-76
2021/07/01 10:09:54;;;;;;;7.58;6.62;;;;;;;31.32;49.69;100433.77;1758514;80;20871;-76
2021/07/01 10:12:30;;;;;;;8.55;5.95;;;;;;;31.83;46.78;100431.45;1758634;80;20926;-77
2021/07/01 10:15:01;;;;;;;10.68;5.87;;;;;;;32.41;45.60;100428.34;1758683;80;20855;-77
2021/07/01 10:17:31;;;;;;;7.75;4.92;;;;;;;33.01;46.09;100427.84;1758786;80;20855;-77
2021/07/01 10:20:12;;;;;;;9.55;4.78;;;;;;;33.52;43.17;100419.72;1725099;81;21559;-77
2021/07/01 10:22:41;;;;;;;7.33;4.65;;;;;;;34.01;42.26;100425.87;1759059;80;20899;-75
2021/07/01 10:25:10;;;;;;;9.58;4.37;;;;;;;34.46;41.38;100422.92;1758659;80;20859;-76
2021/07/01 10:27:40;;;;;;;6.28;4.97;;;;;;;34.82;39.95;100417.86;1758786;80;20855;-75
2021/07/01 10:30:16;;;;;;;9.68;5.15;;;;;;;34.99;39.48;100424.53;1756615;79;21077;-75
2021/07/01 10:32:47;;;;;;;5.72;5.12;;;;;;;35.09;39.50;100419.17;1754005;80;21137;-78
2021/07/01 10:35:38;;;;;;;6.97;5.62;;;;;;;35.18;39.48;100417.38;1754610;81;21445;-77
2021/07/01 10:38:11;;;;;;;8.60;5.22;;;;;;;35.19;39.94;100414.37;1754865;81;20955;-80
2021/07/01 10:40:45;;;;;;;12.78;5.58;;;;;;;35.31;39.63;100411.48;1754332;81;21009;-78
2021/07/01 10:43:13;;;;;;;7.05;4.85;;;;;;;35.46;40.74;100406.64;1754698;81;20872;-75
2021/07/01 10:46:03;;;;;;;7.80;5.17;;;;;;;35.67;39.34;100403.55;1741370;80;21161;-75
2021/07/01 10:48:30;;;;;;;5.25;4.45;;;;;;;35.92;38.85;100395.20;1660782;86;21420;-79
2021/07/01 10:51:08;;;;;;;5.37;4.15;;;;;;;36.17;37.67;100402.70;1660756;86;20901;-78
2021/07/01 10:53:38;;;;;;;10.00;4.55;;;;;;;36.36;38.05;100398.39;1660801;86;20949;-78
2021/07/01 10:56:25;;;;;;;8.10;3.87;;;;;;;36.41;37.74;100393.48;1660887;86;20893;-77
2021/07/01 10:58:57;;;;;;;6.33;4.50;;;;;;;36.46;37.39;100392.96;1662156;81;21152;31
2021/07/01 11:01:29;;;;;;;7.62;4.28;;;;;;;36.48;37.61;100385.28;1704967;78;20957;-78
2021/07/01 11:04:15;;;;;;;7.67;4.25;;;;;;;36.56;38.31;100379.04;1748454;78;20942;-78
2021/07/01 11:07:03;;;;;;;5.35;3.83;;;;;;;36.63;37.29;100375.52;1726412;83;20898;-81
2021/07/01 11:09:44;;;;;;;7.30;3.70;;;;;;;36.68;36.87;100374.15;1726764;83;20913;-78
2021/07/01 11:12:11;;;;;;;7.67;4.53;;;;;;;36.56;36.01;100366.75;1724442;79;22021;-75
2021/07/01 11:14:42;;;;;;;4.25;3.42;;;;;;;36.36;37.15;100360.70;1752080;79;20860;-72
2021/07/01 11:17:09;;;;;;;10.90;3.40;;;;;;;36.33;37.58;100363.95;1714516;79;20896;-76
2021/07/01 11:19:45;;;;;;;6.65;3.83;;;;;;;36.25;37.14;100348.93;1723582;83;20963;-76
2021/07/01 11:22:14;;;;;;;5.95;4.20;;;;;;;36.13;37.20;100348.34;1720004;79;20916;-77
2021/07/01 11:24:45;;;;;;;7.95;3.45;;;;;;;36.05;36.52;100342.29;1720579;79;22496;-77
2021/07/01 11:27:13;;;;;;;3.72;3.30;;;;;;;35.90;35.67;100334.05;1720951;83;20896;-76
2021/07/01 11:29:43;;;;;;;3.20;3.00;;;;;;;35.67;36.16;100335.34;1690866;81;20972;-75
2021/07/01 11:35:06;;;;;;;7.92;3.60;;;;;;;35.18;36.88;100326.86;1743595;80;20928;31
2021/07/01 11:37:39;;;;;;;8.25;3.58;;;;;;;34.85;37.57;100332.04;1713676;79;21401;-71
2021/07/01 11:40:22;;;;;;;8.23;3.30;;;;;;;34.51;37.87;100328.70;1713908;79;21460;31
2021/07/01 11:42:50;;;;;;;5.78;3.52;;;;;;;34.13;38.17;100327.78;1696723;79;23166;-72
2021/07/01 11:45:17;;;;;;;7.85;3.47;;;;;;;33.73;39.37;100316.16;1718948;79;20923;-73
2021/07/01 11:47:45;;;;;;;6.67;3.75;;;;;;;33.41;40.11;100317.33;1699797;79;20872;-75
2021/07/01 11:50:12;;;;;;;7.12;3.37;;;;;;;33.11;40.91;100314.47;1714754;79;21116;-76
2021/07/01 11:52:39;;;;;;;6.35;3.30;;;;;;;32.87;41.11;100308.90;1742453;79;20943;-76
2021/07/01 11:55:07;;;;;;;3.83;3.33;;;;;;;32.60;41.36;100306.30;1686348;85;20947;-73